sensor_id;sensor_type;location;lat;lon;timestamp;pressure;altitude;pressure_sealevel;temperature;humidity
62011;BME280;47967;51.756;10.174;2022-11-14T05:04:46;99852.03;;;3.93;82.63
62011;BME280;47967;51.756;10.174;2022-11-14T05:09:07;99846.69;;;4.11;83.32
62011;BME280;47967;51.756;10.174;2022-11-14T05:13:28;99841.38;;;4.20;82.52
62011;BME280;47967;51.756;10.174;2022-11-14T05:17:49;99839.09;;;4.25;81.90
62011;BME280;47967;51.756;10.174;2022-11-14T05:22:12;99838.28;;;4.06;81.57
62011;BME280;47967;51.756;10.174;2022-11-14T05:26:33;99832.69;;;4.18;82.14
62011;BME280;47967;51.756;10.174;2022-11-14T05:30:59;99835.25;;;4.27;81.92
62011;BME280;47967;51.756;10.174;2022-11-14T05:35:21;99821.78;;;4.11;81.89
62011;BME280;47967;51.756;10.174;2022-11-14T05:39:43;99812.53;;;3.97;82.02
62011;BME280;47967;51.756;10.174;2022-11-14T05:44:05;99804.34;;;3.98;82.14
62011;BME280;47967;51.756;10.174;2022-11-14T05:48:44;99810.66;;;4.15;82.04
62011;BME280;47967;51.756;10.174;2022-11-14T05:53:05;99814.00;;;4.18;82.47
62011;BME280;47967;51.756;10.174;2022-11-14T05:57:29;99815.94;;;4.07;81.92
62011;BME280;47967;51.756;10.174;2022-11-14T06:01:50;99822.47;;;4.13;82.47
62011;BME280;47967;51.756;10.174;2022-11-14T06:06:14;99808.44;;;4.11;81.68
62011;BME280;47967;51.756;10.174;2022-11-14T06:10:35;99797.97;;;3.91;82.69
62011;BME280;47967;51.756;10.174;2022-11-14T06:14:58;99816.50;;;3.93;82.61
62011;BME280;47967;51.756;10.174;2022-11-14T06:19:19;99800.78;;;4.16;82.33
62011;BME280;47967;51.756;10.174;2022-11-14T06:23:41;99814.53;;;4.21;82.27
62011;BME280;47967;51.756;10.174;2022-11-14T06:28:03;99819.88;;;4.21;81.02
62011;BME280;47967;51.756;10.174;2022-11-14T06:32:25;99812.00;;;3.93;80.26
62011;BME280;47967;51.756;10.174;2022-11-14T06:36:46;99805.72;;;3.76;81.10
62011;BME280;47967;51.756;10.174;2022-11-14T06:41:09;99815.41;;;3.77;81.46
62011;BME280;47967;51.756;10.174;2022-11-14T06:45:31;99833.84;;;3.71;81.19
62011;BME280;47967;51.756;10.174;2022-11-14T06:49:53;99832.91;;;3.80;81.01
62011;BME280;47967;51.756;10.174;2022-11-14T06:54:14;99847.41;;;3.77;80.28
62011;BME280;47967;51.756;10.174;2022-11-14T06:58:37;99832.97;;;3.88;80.88
62011;BME280;47967;51.756;10.174;2022-11-14T07:02:58;99842.56;;;3.99;80.53
62011;BME280;47967;51.756;10.174;2022-11-14T07:07:21;99837.72;;;3.94;80.20
62011;BME280;47967;51.756;10.174;2022-11-14T07:11:43;99832.47;;;3.84;80.39
62011;BME280;47967;51.756;10.174;2022-11-14T07:16:06;99818.97;;;3.86;80.23
62011;BME280;47967;51.756;10.174;2022-11-14T07:20:27;99823.59;;;3.84;80.57
62011;BME280;47967;51.756;10.174;2022-11-14T07:24:49;99813.09;;;3.82;81.07
62011;BME280;47967;51.756;10.174;2022-11-14T07:29:10;99819.81;;;4.13;81.06
62011;BME280;47967;51.756;10.174;2022-11-14T07:33:32;99836.16;;;4.36;81.10
62011;BME280;47967;51.756;10.174;2022-11-14T07:38:00;99833.19;;;4.47;81.20
62011;BME280;47967;51.756;10.174;2022-11-14T07:42:22;99827.31;;;4.70;80.40
62011;BME280;47967;51.756;10.174;2022-11-14T07:46:43;99836.84;;;4.73;80.19
62011;BME280;47967;51.756;10.174;2022-11-14T07:51:06;99835.84;;;4.74;80.34
62011;BME280;47967;51.756;10.174;2022-11-14T07:55:29;99832.00;;;4.76;79.97
62011;BME280;47967;51.756;10.174;2022-11-14T07:59:51;99843.09;;;4.90;79.89
62011;BME280;47967;51.756;10.174;2022-11-14T08:04:12;99845.81;;;5.15;79.55
62011;BME280;47967;51.756;10.174;2022-11-14T08:08:34;99844.19;;;5.22;79.20
62011;BME280;47967;51.756;10.174;2022-11-14T08:12:59;99837.69;;;5.49;79.05
62011;BME280;47967;51.756;10.174;2022-11-14T08:17:41;99838.56;;;5.83;77.04
62011;BME280;47967;51.756;10.174;2022-11-14T08:22:02;99839.91;;;5.87;75.98
62011;BME280;47967;51.756;10.174;2022-11-14T08:26:23;99835.75;;;6.01;75.48
62011;BME280;47967;51.756;10.174;2022-11-14T08:30:51;99842.41;;;6.30;75.01
62011;BME280;47967;51.756;10.174;2022-11-14T08:35:14;99843.38;;;6.53;74.49
62011;BME280;47967;51.756;10.174;2022-11-14T08:39:36;99833.00;;;6.42;74.06
62011;BME280;47967;51.756;10.174;2022-11-14T08:43:57;99833.03;;;6.25;73.39
62011;BME280;47967;51.756;10.174;2022-11-14T08:48:18;99829.47;;;6.41;73.20
62011;BME280;47967;51.756;10.174;2022-11-14T08:52:41;99831.34;;;6.33;73.53
62011;BME280;47967;51.756;10.174;2022-11-14T08:57:02;99824.47;;;6.38;73.25
62011;BME280;47967;51.756;10.174;2022-11-14T09:01:24;99811.75;;;6.32;73.44
62011;BME280;47967;51.756;10.174;2022-11-14T09:05:50;99805.56;;;6.23;73.96
62011;BME280;47967;51.756;10.174;2022-11-14T09:10:12;99804.25;;;6.11;74.36
62011;BME280;47967;51.756;10.174;2022-11-14T09:14:35;99792.97;;;6.32;74.92
62011;BME280;47967;51.756;10.174;2022-11-14T09:18:56;99764.50;;;6.39;74.58
62011;BME280;47967;51.756;10.174;2022-11-14T09:23:17;99751.16;;;6.63;74.78
62011;BME280;47967;51.756;10.174;2022-11-14T09:27:39;99754.75;;;6.86;74.40
62011;BME280;47967;51.756;10.174;2022-11-14T09:32:00;99746.00;;;7.16;74.57
62011;BME280;47967;51.756;10.174;2022-11-14T09:36:22;99745.00;;;7.40;74.51
62011;BME280;47967;51.756;10.174;2022-11-14T09:40:51;99755.31;;;7.51;75.16
62011;BME280;47967;51.756;10.174;2022-11-14T09:45:17;99748.41;;;7.72;75.27
62011;BME280;47967;51.756;10.174;2022-11-14T09:49:40;99733.16;;;7.88;74.84
62011;BME280;47967;51.756;10.174;2022-11-14T09:54:09;99735.41;;;7.99;74.59
62011;BME280;47967;51.756;10.174;2022-11-14T09:58:35;99758.09;;;8.11;74.26
62011;BME280;47967;51.756;10.174;2022-11-14T10:03:06;99745.31;;;7.98;73.92
62011;BME280;47967;51.756;10.174;2022-11-14T10:07:38;99751.97;;;8.02;73.82
62011;BME280;47967;51.756;10.174;2022-11-14T10:12:10;99730.59;;;8.24;73.18
62011;BME280;47967;51.756;10.174;2022-11-14T10:16:41;99740.78;;;8.44;72.98
62011;BME280;47967;51.756;10.174;2022-11-14T10:21:25;99731.78;;;8.52;72.22
62011;BME280;47967;51.756;10.174;2022-11-14T10:25:54;99733.91;;;8.71;72.18
62011;BME280;47967;51.756;10.174;2022-11-14T10:30:16;99721.44;;;9.07;71.19
62011;BME280;47967;51.756;10.174;2022-11-14T10:34:41;99750.75;;;9.17;70.86
62011;BME280;47967;51.756;10.174;2022-11-14T10:39:11;99733.25;;;9.49;69.88
62011;BME280;47967;51.756;10.174;2022-11-14T10:43:37;99725.69;;;9.59;69.15
62011;BME280;47967;51.756;10.174;2022-11-14T10:48:03;99726.31;;;9.90;69.11
62011;BME280;47967;51.756;10.174;2022-11-14T10:52:35;99724.78;;;10.09;68.11
62011;BME280;47967;51.756;10.174;2022-11-14T10:57:00;99726.28;;;10.18;68.18
62011;BME280;47967;51.756;10.174;2022-11-14T11:01:35;99720.53;;;10.28;67.72
62011;BME280;47967;51.756;10.174;2022-11-14T11:05:57;99714.88;;;10.51;67.80
62011;BME280;47967;51.756;10.174;2022-11-14T11:10:20;99705.16;;;10.70;66.98
62011;BME280;47967;51.756;10.174;2022-11-14T11:15:13;99705.03;;;10.85;66.47
62011;BME280;47967;51.756;10.174;2022-11-14T11:19:36;99715.22;;;10.90;66.53
62011;BME280;47967;51.756;10.174;2022-11-14T11:23:58;99721.47;;;11.11;66.60
62011;BME280;47967;51.756;10.174;2022-11-14T11:28:20;99722.13;;;11.26;65.11
62011;BME280;47967;51.756;10.174;2022-11-14T11:32:43;99725.03;;;11.11;64.91
62011;BME280;47967;51.756;10.174;2022-11-14T11:37:14;99716.84;;;10.91;64.95
62011;BME280;47967;51.756;10.174;2022-11-14T11:41:38;99710.47;;;11.05;65.25
62011;BME280;47967;51.756;10.174;2022-11-14T11:46:25;99708.19;;;11.23;64.67
62011;BME280;47967;51.756;10.174;2022-11-14T11:50:51;99706.56;;;11.35;64.11
62011;BME280;47967;51.756;10.174;2022-11-14T11:55:15;99704.69;;;11.29;64.21
62011;BME280;47967;51.756;10.174;2022-11-14T11:59:41;99702.41;;;11.46;63.93
62011;BME280;47967;51.756;10.174;2022-11-14T12:04:03;99703.44;;;11.45;64.31
62011;BME280;47967;51.756;10.174;2022-11-14T12:08:32;99696.38;;;11.64;63.77
62011;BME280;47967;51.756;10.174;2022-11-14T12:13:26;99697.63;;;11.61;63.44
62011;BME280;47967;51.756;10.174;2022-11-14T12:18:05;99693.66;;;11.77;64.29
62011;BME280;47967;51.756;10.174;2022-11-14T12:23:00;99687.63;;;11.75;63.71
62011;BME280;47967;51.756;10.174;2022-11-14T12:27:42;99677.03;;;11.80;63.52
62011;BME280;47967;51.756;10.174;2022-11-14T12:32:12;99675.78;;;11.76;63.33
62011;BME280;47967;51.756;10.174;2022-11-14T12:36:35;99683.25;;;11.81;62.91
62011;BME280;47967;51.756;10.174;2022-11-14T12:40:58;99678.88;;;11.93;63.08
62011;BME280;47967;51.756;10.174;2022-11-14T12:45:56;99676.38;;;11.92;63.05
62011;BME280;47967;51.756;10.174;2022-11-14T12:50:40;99671.78;;;12.06;62.85
62011;BME280;47967;51.756;10.174;2022-11-14T12:55:02;99664.94;;;12.10;62.72
62011;BME280;47967;51.756;10.174;2022-11-14T12:59:38;99657.41;;;12.19;62.24
62011;BME280;47967;51.756;10.174;2022-11-14T13:04:17;99656.97;;;12.22;62.25
62011;BME280;47967;51.756;10.174;2022-11-14T13:08:54;99649.72;;;12.22;62.31
62011;BME280;47967;51.756;10.174;2022-11-14T13:13:20;99653.88;;;12.18;61.88
62011;BME280;47967;51.756;10.174;2022-11-14T13:18:02;99656.56;;;12.25;62.40
62011;BME280;47967;51.756;10.174;2022-11-14T13:22:44;99640.72;;;12.28;61.54
62011;BME280;47967;51.756;10.174;2022-11-14T13:32:01;99642.50;;;12.48;60.84
62011;BME280;47967;51.756;10.174;2022-11-14T13:36:29;99632.56;;;12.42;60.39
62011;BME280;47967;51.756;10.174;2022-11-14T13:41:06;99621.34;;;12.38;60.27
62011;BME280;47967;51.756;10.174;2022-11-14T13:45:44;99618.59;;;12.45;60.53
62011;BME280;47967;51.756;10.174;2022-11-14T13:50:10;99621.28;;;12.45;60.39
62011;BME280;47967;51.756;10.174;2022-11-14T13:54:33;99612.56;;;12.43;60.65
62011;BME280;47967;51.756;10.174;2022-11-14T14:04:15;99596.28;;;12.49;60.28
62011;BME280;47967;51.756;10.174;2022-11-14T14:08:54;99590.22;;;12.54;60.50
62011;BME280;47967;51.756;10.174;2022-11-14T14:13:32;99584.81;;;12.54;60.44
62011;BME280;47967;51.756;10.174;2022-11-14T14:18:05;99579.38;;;12.61;60.52
62011;BME280;47967;51.756;10.174;2022-11-14T14:22:37;99575.78;;;12.67;60.09
62011;BME280;47967;51.756;10.174;2022-11-14T14:27:09;99578.66;;;12.72;60.11
62011;BME280;47967;51.756;10.174;2022-11-14T14:31:37;99578.69;;;12.65;59.86
62011;BME280;47967;51.756;10.174;2022-11-14T14:35:59;99568.75;;;12.59;60.02
62011;BME280;47967;51.756;10.174;2022-11-14T14:40:26;99576.47;;;12.56;60.00
62011;BME280;47967;51.756;10.174;2022-11-14T14:44:48;99575.81;;;12.60;60.18
62011;BME280;47967;51.756;10.174;2022-11-14T14:49:09;99562.13;;;12.55;60.30
62011;BME280;47967;51.756;10.174;2022-11-14T14:53:32;99574.81;;;12.55;60.02
62011;BME280;47967;51.756;10.174;2022-11-14T14:58:11;99567.16;;;12.45;60.44
62011;BME280;47967;51.756;10.174;2022-11-14T15:02:37;99551.78;;;12.45;60.46
62011;BME280;47967;51.756;10.174;2022-11-14T15:06:58;99543.56;;;12.27;61.13
62011;BME280;47967;51.756;10.174;2022-11-14T15:11:19;99544.09;;;12.04;61.53
62011;BME280;47967;51.756;10.174;2022-11-14T15:15:42;99530.94;;;11.55;63.09
62011;BME280;47967;51.756;10.174;2022-11-14T15:20:19;99530.63;;;11.11;64.36
62011;BME280;47967;51.756;10.174;2022-11-14T15:24:41;99516.09;;;10.79;65.56
62011;BME280;47967;51.756;10.174;2022-11-14T15:29:04;99516.09;;;10.59;66.20
62011;BME280;47967;51.756;10.174;2022-11-14T15:33:29;99522.63;;;10.22;67.15
62011;BME280;47967;51.756;10.174;2022-11-14T15:38:01;99514.72;;;10.07;68.19
62011;BME280;47967;51.756;10.174;2022-11-14T15:42:43;99513.47;;;10.03;68.67
62011;BME280;47967;51.756;10.174;2022-11-14T15:47:04;99514.25;;;9.97;68.97
62011;BME280;47967;51.756;10.174;2022-11-14T15:51:40;99507.19;;;9.83;69.15
62011;BME280;47967;51.756;10.174;2022-11-14T15:56:02;99509.34;;;9.59;70.15
62011;BME280;47967;51.756;10.174;2022-11-14T16:00:24;99512.41;;;9.49;70.89
62011;BME280;47967;51.756;10.174;2022-11-14T16:04:45;99512.13;;;9.37;71.19
62011;BME280;47967;51.756;10.174;2022-11-14T16:09:13;99517.50;;;9.31;71.39
62011;BME280;47967;51.756;10.174;2022-11-14T16:13:34;99505.63;;;9.18;71.72
62011;BME280;47967;51.756;10.174;2022-11-14T16:17:55;99509.47;;;9.02;72.45
62011;BME280;47967;51.756;10.174;2022-11-14T16:22:17;99499.84;;;8.93;72.83
62011;BME280;47967;51.756;10.174;2022-11-14T16:26:39;99497.59;;;8.96;72.89
62011;BME280;47967;51.756;10.174;2022-11-14T16:31:01;99500.88;;;8.92;72.70
62011;BME280;47967;51.756;10.174;2022-11-14T16:35:24;99495.03;;;8.81;72.96
62011;BME280;47967;51.756;10.174;2022-11-14T16:39:45;99490.22;;;8.77;73.52
62011;BME280;47967;51.756;10.174;2022-11-14T16:44:12;99491.13;;;8.84;73.54
62011;BME280;47967;51.756;10.174;2022-11-14T16:48:33;99496.53;;;8.91;73.72
62011;BME280;47967;51.756;10.174;2022-11-14T16:52:55;99494.25;;;8.88;73.08
62011;BME280;47967;51.756;10.174;2022-11-14T16:57:16;99491.31;;;8.83;73.57
62011;BME280;47967;51.756;10.174;2022-11-14T17:01:38;99505.97;;;8.80;73.31
62011;BME280;47967;51.756;10.174;2022-11-14T17:05:59;99493.72;;;8.77;73.73
62011;BME280;47967;51.756;10.174;2022-11-14T17:10:20;99485.66;;;8.77;73.76
62011;BME280;47967;51.756;10.174;2022-11-14T17:14:42;99481.91;;;8.72;73.92
62011;BME280;47967;51.756;10.174;2022-11-14T17:19:04;99478.38;;;8.71;74.22
62011;BME280;47967;51.756;10.174;2022-11-14T17:23:26;99477.25;;;9.16;73.74
62011;BME280;47967;51.756;10.174;2022-11-14T17:27:48;99472.78;;;9.78;72.91
62011;BME280;47967;51.756;10.174;2022-11-14T17:32:09;99469.53;;;10.09;71.45
62011;BME280;47967;51.756;10.174;2022-11-14T17:36:32;99468.31;;;10.32;70.64
62011;BME280;47967;51.756;10.174;2022-11-14T17:40:55;99455.47;;;10.34;70.39
62011;BME280;47967;51.756;10.174;2022-11-14T17:45:17;99469.38;;;10.45;70.12
62011;BME280;47967;51.756;10.174;2022-11-14T17:49:40;99458.19;;;10.54;69.81
62011;BME280;47967;51.756;10.174;2022-11-14T17:54:02;99442.81;;;10.95;68.64
62011;BME280;47967;51.756;10.174;2022-11-14T17:58:23;99452.91;;;11.27;67.98
62011;BME280;47967;51.756;10.174;2022-11-14T18:02:47;99442.25;;;11.45;67.02
62011;BME280;47967;51.756;10.174;2022-11-14T18:07:08;99443.44;;;11.56;66.96
62011;BME280;47967;51.756;10.174;2022-11-14T18:11:31;99454.63;;;11.66;66.46
62011;BME280;47967;51.756;10.174;2022-11-14T18:15:52;99445.88;;;11.64;66.16
62011;BME280;47967;51.756;10.174;2022-11-14T18:20:14;99437.47;;;11.86;66.29
62011;BME280;47967;51.756;10.174;2022-11-14T18:24:35;99435.78;;;11.92;65.72
62011;BME280;47967;51.756;10.174;2022-11-14T18:28:59;99435.22;;;11.83;65.71
62011;BME280;47967;51.756;10.174;2022-11-14T18:33:21;99428.63;;;11.72;65.94
62011;BME280;47967;51.756;10.174;2022-11-14T18:37:42;99433.28;;;11.51;66.49
62011;BME280;47967;51.756;10.174;2022-11-14T18:42:03;99417.94;;;11.38;67.17
62011;BME280;47967;51.756;10.174;2022-11-14T18:46:25;99412.38;;;11.33;67.15
62011;BME280;47967;51.756;10.174;2022-11-14T18:50:50;99402.19;;;11.35;67.04
62011;BME280;47967;51.756;10.174;2022-11-14T18:55:12;99393.63;;;11.38;67.23
62011;BME280;47967;51.756;10.174;2022-11-14T18:59:33;99402.75;;;11.44;66.95
62011;BME280;47967;51.756;10.174;2022-11-14T19:03:56;99397.38;;;11.44;66.92
62011;BME280;47967;51.756;10.174;2022-11-14T19:08:18;99402.13;;;11.49;67.08
62011;BME280;47967;51.756;10.174;2022-11-14T19:12:39;99405.22;;;11.52;66.88
62011;BME280;47967;51.756;10.174;2022-11-14T19:17:01;99397.28;;;11.58;66.68
62011;BME280;47967;51.756;10.174;2022-11-14T19:21:24;99392.47;;;11.66;66.71
62011;BME280;47967;51.756;10.174;2022-11-14T19:25:46;99380.94;;;11.84;66.04
62011;BME280;47967;51.756;10.174;2022-11-14T19:30:08;99376.94;;;11.87;66.03
62011;BME280;47967;51.756;10.174;2022-11-14T19:34:30;99376.41;;;12.10;65.48
62011;BME280;47967;51.756;10.174;2022-11-14T19:38:56;99376.06;;;12.25;64.84
62011;BME280;47967;51.756;10.174;2022-11-14T19:43:19;99375.25;;;12.25;64.74
62011;BME280;47967;51.756;10.174;2022-11-14T19:47:40;99383.13;;;12.01;65.35
62011;BME280;47967;51.756;10.174;2022-11-14T19:52:01;99381.00;;;11.71;66.28
62011;BME280;47967;51.756;10.174;2022-11-14T19:56:24;99378.78;;;11.61;66.77
62011;BME280;47967;51.756;10.174;2022-11-14T20:00:45;99368.50;;;11.77;66.64
62011;BME280;47967;51.756;10.174;2022-11-14T20:05:07;99370.16;;;11.78;66.54
62011;BME280;47967;51.756;10.174;2022-11-14T20:09:29;99365.84;;;11.70;67.08
62011;BME280;47967;51.756;10.174;2022-11-14T20:13:52;99369.56;;;11.76;67.01
62011;BME280;47967;51.756;10.174;2022-11-14T20:18:12;99363.19;;;11.63;67.28
62011;BME280;47967;51.756;10.174;2022-11-14T20:22:34;99366.56;;;11.52;67.50
62011;BME280;47967;51.756;10.174;2022-11-14T20:26:55;99365.75;;;11.45;67.62
62011;BME280;47967;51.756;10.174;2022-11-14T20:31:20;99356.78;;;11.58;67.58
62011;BME280;47967;51.756;10.174;2022-11-14T20:35:41;99363.03;;;11.51;67.45
62011;BME280;47967;51.756;10.174;2022-11-14T20:40:03;99354.31;;;11.81;67.10
62011;BME280;47967;51.756;10.174;2022-11-14T20:44:25;99359.94;;;11.80;66.67
62011;BME280;47967;51.756;10.174;2022-11-14T20:48:47;99343.72;;;11.80;66.80
62011;BME280;47967;51.756;10.174;2022-11-14T20:53:09;99356.28;;;11.67;66.98
62011;BME280;47967;51.756;10.174;2022-11-14T20:57:30;99369.63;;;11.62;67.14
62011;BME280;47967;51.756;10.174;2022-11-14T21:01:53;99357.72;;;11.70;67.01
62011;BME280;47967;51.756;10.174;2022-11-14T21:06:16;99359.38;;;11.71;66.98
62011;BME280;47967;51.756;10.174;2022-11-14T21:10:37;99347.63;;;11.59;67.26
62011;BME280;47967;51.756;10.174;2022-11-14T21:15:08;99360.28;;;11.58;67.44
62011;BME280;47967;51.756;10.174;2022-11-14T21:19:29;99365.22;;;11.68;67.12
62011;BME280;47967;51.756;10.174;2022-11-14T21:23:52;99354.94;;;11.83;67.13
62011;BME280;47967;51.756;10.174;2022-11-14T21:28:14;99358.19;;;11.92;66.80
62011;BME280;47967;51.756;10.174;2022-11-14T21:32:35;99371.25;;;12.02;66.55
62011;BME280;47967;51.756;10.174;2022-11-14T21:36:56;99381.00;;;12.10;66.44
62011;BME280;47967;51.756;10.174;2022-11-14T21:41:20;99370.88;;;12.24;66.14
62011;BME280;47967;51.756;10.174;2022-11-14T21:45:41;99371.66;;;12.31;65.98
62011;BME280;47967;51.756;10.174;2022-11-14T21:50:05;99375.03;;;12.26;66.07
62011;BME280;47967;51.756;10.174;2022-11-14T21:54:26;99385.19;;;12.31;65.96
62011;BME280;47967;51.756;10.174;2022-11-14T21:58:49;99384.47;;;12.42;66.13
